Archival Weather

Chicago O'Hare International

Chicago, Illinois (KORD)

Report from: Thursday, May 11, 2023 4:51 AM CDT
Current time: Friday, February 23, 2024 2:30 PM CST

Current weather – Weather history – Daily summaries
Weather forecast

Temperature12.8°C (55.0°F)
Dew point6.7°C (44.1°F)
Winds 3 kts (1.5 m/s, 3.5 mph) East-Southeast (110°)
Visibility10 mi. (16.1 km)
Clouds Scattered clouds 30,000 ft. (9,144 m)
Altimeter30.08 in.Hg (1019 mB)
Relative humidity66 %
Density altitude-293 ft. (-89 m)
Sea-level pressure101.8 kPa (1018 mB, 30.07 in.Hg)
Remarks Automated weather observing station with precipitation discriminator
Flight conditions Visual Meteorological Conditions
Raw dataKORD 110951Z 11003KT 10SM SCT300 13/07 A3008 RMK AO2 SLP184 T01280067
An error has occurred. This application may no longer respond until reloaded. Reload 🗙